Terminal Aerodrome Forecast
Issued by NWS

Home | Current Version | Previous Version | Text Only | Print | Product List | Glossary On
Versions: 1 2 3 4 5 6 7 8 9 10 11 12 13 14 15 16 17 18 19 20 21 22 23 24 25 26 27 28 29 30 31 32 33 34 35 36 37 38 39 40 41
000
FTPA31 PHFO 311700
TAFLNY
TAF
PHNY 311727Z 3118/0118 05007KT P6SM SCT025
     FM312000 17008KT P6SM SCT025 BKN035
     FM312200 27008KT P6SM BKN025
     FM010300 05014KT P6SM SCT025
     FM010800 05008KT P6SM FEW025
      AMD NOT SKED=

USA.gov is the U.S. government's official web portal to all federal, state and local government web resources and services.